sensor_id;sensor_type;location;lat;lon;timestamp;temperature;humidity
56478;DHT22;42382;53.210;5.772;2023-03-14T00:02:02;10.00;80.80
56478;DHT22;42382;53.210;5.772;2023-03-14T00:04:28;9.90;80.90
56478;DHT22;42382;53.210;5.772;2023-03-14T00:06:53;9.90;80.90
56478;DHT22;42382;53.210;5.772;2023-03-14T00:09:19;9.80;81.10
56478;DHT22;42382;53.210;5.772;2023-03-14T00:11:45;9.80;81.30
56478;DHT22;42382;53.210;5.772;2023-03-14T00:14:11;9.70;81.40
56478;DHT22;42382;53.210;5.772;2023-03-14T00:16:37;9.70;81.70
56478;DHT22;42382;53.210;5.772;2023-03-14T00:19:02;9.70;81.90
56478;DHT22;42382;53.210;5.772;2023-03-14T00:21:28;9.70;82.10
56478;DHT22;42382;53.210;5.772;2023-03-14T00:23:54;9.70;82.20
56478;DHT22;42382;53.210;5.772;2023-03-14T00:26:20;9.70;82.20
56478;DHT22;42382;53.210;5.772;2023-03-14T00:28:47;9.70;82.40
56478;DHT22;42382;53.210;5.772;2023-03-14T00:31:15;9.70;82.30
56478;DHT22;42382;53.210;5.772;2023-03-14T00:33:41;9.60;82.40
56478;DHT22;42382;53.210;5.772;2023-03-14T00:36:10;9.60;82.50
56478;DHT22;42382;53.210;5.772;2023-03-14T00:38:38;9.60;82.60
56478;DHT22;42382;53.210;5.772;2023-03-14T00:41:06;9.60;82.70
56478;DHT22;42382;53.210;5.772;2023-03-14T00:43:32;9.60;82.80
56478;DHT22;42382;53.210;5.772;2023-03-14T00:45:58;9.50;82.70
56478;DHT22;42382;53.210;5.772;2023-03-14T00:48:24;9.50;82.90
56478;DHT22;42382;53.210;5.772;2023-03-14T00:50:49;9.40;83.00
56478;DHT22;42382;53.210;5.772;2023-03-14T00:53:15;9.40;83.00
56478;DHT22;42382;53.210;5.772;2023-03-14T00:55:42;9.40;83.10
56478;DHT22;42382;53.210;5.772;2023-03-14T00:58:10;9.40;83.40
56478;DHT22;42382;53.210;5.772;2023-03-14T01:00:36;9.40;83.50
56478;DHT22;42382;53.210;5.772;2023-03-14T01:03:02;9.30;83.70
56478;DHT22;42382;53.210;5.772;2023-03-14T01:05:28;9.30;83.80
56478;DHT22;42382;53.210;5.772;2023-03-14T01:07:54;9.40;83.90
56478;DHT22;42382;53.210;5.772;2023-03-14T01:10:20;9.40;84.00
56478;DHT22;42382;53.210;5.772;2023-03-14T01:12:45;9.40;84.20
56478;DHT22;42382;53.210;5.772;2023-03-14T01:15:11;9.40;84.30
56478;DHT22;42382;53.210;5.772;2023-03-14T01:17:37;9.40;84.50
56478;DHT22;42382;53.210;5.772;2023-03-14T01:20:07;9.40;84.50
56478;DHT22;42382;53.210;5.772;2023-03-14T01:22:37;9.40;84.70
56478;DHT22;42382;53.210;5.772;2023-03-14T01:25:05;9.40;84.80
56478;DHT22;42382;53.210;5.772;2023-03-14T01:27:32;9.40;85.00
56478;DHT22;42382;53.210;5.772;2023-03-14T01:29:58;9.50;85.10
56478;DHT22;42382;53.210;5.772;2023-03-14T01:32:24;9.40;85.20
56478;DHT22;42382;53.210;5.772;2023-03-14T01:34:50;9.40;85.10
56478;DHT22;42382;53.210;5.772;2023-03-14T01:37:16;9.50;85.20
56478;DHT22;42382;53.210;5.772;2023-03-14T01:39:42;9.40;85.40
56478;DHT22;42382;53.210;5.772;2023-03-14T01:42:07;9.40;85.30
56478;DHT22;42382;53.210;5.772;2023-03-14T01:44:55;9.40;85.70
56478;DHT22;42382;53.210;5.772;2023-03-14T01:47:21;9.40;85.60
56478;DHT22;42382;53.210;5.772;2023-03-14T01:49:51;9.40;85.80
56478;DHT22;42382;53.210;5.772;2023-03-14T01:52:25;9.40;85.90
56478;DHT22;42382;53.210;5.772;2023-03-14T01:57:38;9.40;86.00
56478;DHT22;42382;53.210;5.772;2023-03-14T02:00:23;9.40;86.10
56478;DHT22;42382;53.210;5.772;2023-03-14T02:02:55;9.40;86.10
56478;DHT22;42382;53.210;5.772;2023-03-14T02:05:25;9.30;86.20
56478;DHT22;42382;53.210;5.772;2023-03-14T02:07:56;9.40;86.20
56478;DHT22;42382;53.210;5.772;2023-03-14T02:10:25;9.40;86.40
56478;DHT22;42382;53.210;5.772;2023-03-14T02:12:53;9.30;86.70
56478;DHT22;42382;53.210;5.772;2023-03-14T02:15:20;9.30;86.60
56478;DHT22;42382;53.210;5.772;2023-03-14T02:17:46;9.30;86.70
56478;DHT22;42382;53.210;5.772;2023-03-14T02:20:27;9.30;86.90
56478;DHT22;42382;53.210;5.772;2023-03-14T02:22:54;9.30;86.80
56478;DHT22;42382;53.210;5.772;2023-03-14T02:27:51;9.30;87.10
56478;DHT22;42382;53.210;5.772;2023-03-14T02:32:47;9.30;87.30
56478;DHT22;42382;53.210;5.772;2023-03-14T02:35:18;9.20;87.50
56478;DHT22;42382;53.210;5.772;2023-03-14T02:37:52;9.20;87.70
56478;DHT22;42382;53.210;5.772;2023-03-14T02:40:18;9.20;87.60
56478;DHT22;42382;53.210;5.772;2023-03-14T02:42:44;9.20;87.70
56478;DHT22;42382;53.210;5.772;2023-03-14T02:47:43;9.10;88.10
56478;DHT22;42382;53.210;5.772;2023-03-14T02:50:15;9.10;88.40
56478;DHT22;42382;53.210;5.772;2023-03-14T02:52:41;9.10;88.50
56478;DHT22;42382;53.210;5.772;2023-03-14T02:55:08;9.10;88.40
56478;DHT22;42382;53.210;5.772;2023-03-14T02:57:34;9.10;88.60
56478;DHT22;42382;53.210;5.772;2023-03-14T03:00:00;9.00;88.70
56478;DHT22;42382;53.210;5.772;2023-03-14T03:02:27;9.00;89.30
56478;DHT22;42382;53.210;5.772;2023-03-14T03:04:53;9.00;89.10
56478;DHT22;42382;53.210;5.772;2023-03-14T03:07:18;9.00;89.40
56478;DHT22;42382;53.210;5.772;2023-03-14T03:09:45;8.90;89.30
56478;DHT22;42382;53.210;5.772;2023-03-14T03:12:11;8.90;89.30
56478;DHT22;42382;53.210;5.772;2023-03-14T03:14:36;8.90;89.50
56478;DHT22;42382;53.210;5.772;2023-03-14T03:17:05;9.00;89.30
56478;DHT22;42382;53.210;5.772;2023-03-14T03:19:32;9.00;89.40
56478;DHT22;42382;53.210;5.772;2023-03-14T03:21:57;8.90;89.80
56478;DHT22;42382;53.210;5.772;2023-03-14T03:24:24;8.90;89.60
56478;DHT22;42382;53.210;5.772;2023-03-14T03:26:49;8.90;89.40
56478;DHT22;42382;53.210;5.772;2023-03-14T03:29:15;8.90;89.40
56478;DHT22;42382;53.210;5.772;2023-03-14T03:31:40;8.90;89.70
56478;DHT22;42382;53.210;5.772;2023-03-14T03:34:06;8.90;89.60
56478;DHT22;42382;53.210;5.772;2023-03-14T03:36:32;8.90;89.60
56478;DHT22;42382;53.210;5.772;2023-03-14T03:38:58;8.90;89.50
56478;DHT22;42382;53.210;5.772;2023-03-14T03:41:24;8.90;89.50
56478;DHT22;42382;53.210;5.772;2023-03-14T03:43:49;8.90;89.30
56478;DHT22;42382;53.210;5.772;2023-03-14T03:46:15;8.90;89.30
56478;DHT22;42382;53.210;5.772;2023-03-14T03:48:40;8.90;89.30
56478;DHT22;42382;53.210;5.772;2023-03-14T03:51:06;9.00;89.30
56478;DHT22;42382;53.210;5.772;2023-03-14T03:53:32;8.90;89.20
56478;DHT22;42382;53.210;5.772;2023-03-14T03:55:57;9.00;89.20
56478;DHT22;42382;53.210;5.772;2023-03-14T03:58:23;8.90;89.30
56478;DHT22;42382;53.210;5.772;2023-03-14T04:00:48;8.90;89.40
56478;DHT22;42382;53.210;5.772;2023-03-14T04:03:14;9.00;89.30
56478;DHT22;42382;53.210;5.772;2023-03-14T04:05:40;9.00;89.30
56478;DHT22;42382;53.210;5.772;2023-03-14T04:08:05;9.00;89.30
56478;DHT22;42382;53.210;5.772;2023-03-14T04:10:34;9.00;89.40
56478;DHT22;42382;53.210;5.772;2023-03-14T04:12:59;8.90;89.30
56478;DHT22;42382;53.210;5.772;2023-03-14T04:15:25;9.00;89.30
56478;DHT22;42382;53.210;5.772;2023-03-14T04:17:51;9.00;89.30
56478;DHT22;42382;53.210;5.772;2023-03-14T04:20:16;9.00;89.30
56478;DHT22;42382;53.210;5.772;2023-03-14T04:22:42;9.00;89.10
56478;DHT22;42382;53.210;5.772;2023-03-14T04:25:08;8.90;89.50
56478;DHT22;42382;53.210;5.772;2023-03-14T04:27:33;8.90;89.50
56478;DHT22;42382;53.210;5.772;2023-03-14T04:29:59;8.90;90.00
56478;DHT22;42382;53.210;5.772;2023-03-14T04:32:24;8.90;90.30
56478;DHT22;42382;53.210;5.772;2023-03-14T04:34:50;8.80;90.80
56478;DHT22;42382;53.210;5.772;2023-03-14T04:37:15;8.80;90.90
56478;DHT22;42382;53.210;5.772;2023-03-14T04:39:41;8.70;90.80
56478;DHT22;42382;53.210;5.772;2023-03-14T04:42:07;8.60;91.20
56478;DHT22;42382;53.210;5.772;2023-03-14T04:44:32;8.60;91.30
56478;DHT22;42382;53.210;5.772;2023-03-14T04:46:58;8.60;91.30
56478;DHT22;42382;53.210;5.772;2023-03-14T04:49:24;8.60;91.50
56478;DHT22;42382;53.210;5.772;2023-03-14T04:51:49;8.60;91.40
56478;DHT22;42382;53.210;5.772;2023-03-14T04:54:17;8.60;91.60
56478;DHT22;42382;53.210;5.772;2023-03-14T04:56:43;8.60;91.60
56478;DHT22;42382;53.210;5.772;2023-03-14T04:59:08;8.50;91.70
56478;DHT22;42382;53.210;5.772;2023-03-14T05:01:34;8.50;91.70
56478;DHT22;42382;53.210;5.772;2023-03-14T05:04:00;8.60;91.40
56478;DHT22;42382;53.210;5.772;2023-03-14T05:06:26;8.60;91.80
56478;DHT22;42382;53.210;5.772;2023-03-14T05:08:52;8.60;91.80
56478;DHT22;42382;53.210;5.772;2023-03-14T05:11:18;8.60;92.00
56478;DHT22;42382;53.210;5.772;2023-03-14T05:13:43;8.60;91.80
56478;DHT22;42382;53.210;5.772;2023-03-14T05:16:10;8.60;92.00
56478;DHT22;42382;53.210;5.772;2023-03-14T05:18:36;8.60;91.90
56478;DHT22;42382;53.210;5.772;2023-03-14T05:21:03;8.60;92.00
56478;DHT22;42382;53.210;5.772;2023-03-14T05:23:29;8.60;91.90
56478;DHT22;42382;53.210;5.772;2023-03-14T05:25:54;8.50;92.20
56478;DHT22;42382;53.210;5.772;2023-03-14T05:28:20;8.60;92.30
56478;DHT22;42382;53.210;5.772;2023-03-14T05:30:46;8.60;92.30
56478;DHT22;42382;53.210;5.772;2023-03-14T05:33:11;8.50;92.40
56478;DHT22;42382;53.210;5.772;2023-03-14T05:35:37;8.50;92.40
56478;DHT22;42382;53.210;5.772;2023-03-14T05:38:03;8.50;92.50
56478;DHT22;42382;53.210;5.772;2023-03-14T05:40:28;8.40;92.60
56478;DHT22;42382;53.210;5.772;2023-03-14T05:42:54;8.40;92.50
56478;DHT22;42382;53.210;5.772;2023-03-14T05:45:21;8.30;92.10
56478;DHT22;42382;53.210;5.772;2023-03-14T05:47:47;8.20;92.10
56478;DHT22;42382;53.210;5.772;2023-03-14T05:50:12;8.10;92.00
56478;DHT22;42382;53.210;5.772;2023-03-14T05:52:38;8.00;91.90
56478;DHT22;42382;53.210;5.772;2023-03-14T05:55:04;7.90;91.70
56478;DHT22;42382;53.210;5.772;2023-03-14T05:57:30;7.70;91.40
56478;DHT22;42382;53.210;5.772;2023-03-14T05:59:55;7.60;91.20
56478;DHT22;42382;53.210;5.772;2023-03-14T06:02:21;7.30;90.90
56478;DHT22;42382;53.210;5.772;2023-03-14T06:04:47;7.20;91.00
56478;DHT22;42382;53.210;5.772;2023-03-14T06:07:12;7.10;90.90
56478;DHT22;42382;53.210;5.772;2023-03-14T06:09:38;6.90;90.90
56478;DHT22;42382;53.210;5.772;2023-03-14T06:12:05;6.70;90.80
56478;DHT22;42382;53.210;5.772;2023-03-14T06:14:31;6.60;90.80
56478;DHT22;42382;53.210;5.772;2023-03-14T06:16:57;6.50;90.60
56478;DHT22;42382;53.210;5.772;2023-03-14T06:19:24;6.40;90.30
56478;DHT22;42382;53.210;5.772;2023-03-14T06:21:50;6.20;90.00
56478;DHT22;42382;53.210;5.772;2023-03-14T06:24:16;6.10;90.20
56478;DHT22;42382;53.210;5.772;2023-03-14T06:26:41;6.00;90.00
56478;DHT22;42382;53.210;5.772;2023-03-14T06:29:07;5.90;89.50
56478;DHT22;42382;53.210;5.772;2023-03-14T06:31:33;5.70;89.60
56478;DHT22;42382;53.210;5.772;2023-03-14T06:33:59;5.60;89.80
56478;DHT22;42382;53.210;5.772;2023-03-14T06:36:24;5.60;89.70
56478;DHT22;42382;53.210;5.772;2023-03-14T06:38:50;5.50;90.00
56478;DHT22;42382;53.210;5.772;2023-03-14T06:41:16;5.50;90.10
56478;DHT22;42382;53.210;5.772;2023-03-14T06:43:42;5.50;90.10
56478;DHT22;42382;53.210;5.772;2023-03-14T06:46:07;5.40;89.90
56478;DHT22;42382;53.210;5.772;2023-03-14T06:48:33;5.40;89.80
56478;DHT22;42382;53.210;5.772;2023-03-14T06:50:59;5.40;89.90
56478;DHT22;42382;53.210;5.772;2023-03-14T06:53:24;5.40;89.70
56478;DHT22;42382;53.210;5.772;2023-03-14T06:55:50;5.40;90.10
56478;DHT22;42382;53.210;5.772;2023-03-14T06:58:16;5.40;89.70
56478;DHT22;42382;53.210;5.772;2023-03-14T07:00:42;5.30;89.70
56478;DHT22;42382;53.210;5.772;2023-03-14T07:03:07;5.30;89.80
56478;DHT22;42382;53.210;5.772;2023-03-14T07:05:33;5.30;90.00
56478;DHT22;42382;53.210;5.772;2023-03-14T07:07:58;5.30;89.70
56478;DHT22;42382;53.210;5.772;2023-03-14T07:10:24;5.30;89.80
56478;DHT22;42382;53.210;5.772;2023-03-14T07:12:50;5.30;89.70
56478;DHT22;42382;53.210;5.772;2023-03-14T07:15:15;5.30;90.00
56478;DHT22;42382;53.210;5.772;2023-03-14T07:17:41;5.30;89.50
56478;DHT22;42382;53.210;5.772;2023-03-14T07:20:07;5.30;89.70
56478;DHT22;42382;53.210;5.772;2023-03-14T07:22:34;5.40;89.70
56478;DHT22;42382;53.210;5.772;2023-03-14T07:25:00;5.40;89.90
56478;DHT22;42382;53.210;5.772;2023-03-14T07:27:25;5.40;89.50
56478;DHT22;42382;53.210;5.772;2023-03-14T07:29:51;5.40;89.60
56478;DHT22;42382;53.210;5.772;2023-03-14T07:32:16;5.40;89.50
56478;DHT22;42382;53.210;5.772;2023-03-14T07:34:42;5.50;89.40
56478;DHT22;42382;53.210;5.772;2023-03-14T07:37:08;5.40;88.80
56478;DHT22;42382;53.210;5.772;2023-03-14T07:39:34;5.40;88.40
56478;DHT22;42382;53.210;5.772;2023-03-14T07:42:00;5.40;89.00
56478;DHT22;42382;53.210;5.772;2023-03-14T07:44:26;5.40;88.40
56478;DHT22;42382;53.210;5.772;2023-03-14T07:46:52;5.40;88.40
56478;DHT22;42382;53.210;5.772;2023-03-14T07:49:18;5.50;88.20
56478;DHT22;42382;53.210;5.772;2023-03-14T07:51:43;5.50;88.50
56478;DHT22;42382;53.210;5.772;2023-03-14T07:54:10;5.60;88.70
56478;DHT22;42382;53.210;5.772;2023-03-14T07:56:36;5.70;88.90
56478;DHT22;42382;53.210;5.772;2023-03-14T07:59:01;5.70;88.10
56478;DHT22;42382;53.210;5.772;2023-03-14T08:01:27;5.70;87.70
56478;DHT22;42382;53.210;5.772;2023-03-14T08:03:52;5.80;87.20
56478;DHT22;42382;53.210;5.772;2023-03-14T08:06:18;5.80;86.60
56478;DHT22;42382;53.210;5.772;2023-03-14T08:08:44;5.80;87.30
56478;DHT22;42382;53.210;5.772;2023-03-14T08:11:10;5.80;87.20
56478;DHT22;42382;53.210;5.772;2023-03-14T08:13:37;5.90;87.10
56478;DHT22;42382;53.210;5.772;2023-03-14T08:16:03;5.90;87.40
56478;DHT22;42382;53.210;5.772;2023-03-14T08:18:29;5.90;87.20
56478;DHT22;42382;53.210;5.772;2023-03-14T08:20:55;6.10;87.10
56478;DHT22;42382;53.210;5.772;2023-03-14T08:23:20;6.20;87.50
56478;DHT22;42382;53.210;5.772;2023-03-14T08:25:49;6.30;86.90
56478;DHT22;42382;53.210;5.772;2023-03-14T08:28:15;6.50;86.70
56478;DHT22;42382;53.210;5.772;2023-03-14T08:30:40;6.60;85.30
56478;DHT22;42382;53.210;5.772;2023-03-14T08:33:06;6.70;85.40
56478;DHT22;42382;53.210;5.772;2023-03-14T08:35:31;6.80;84.60
56478;DHT22;42382;53.210;5.772;2023-03-14T08:37:57;6.90;84.20
56478;DHT22;42382;53.210;5.772;2023-03-14T08:40:23;7.00;84.60
56478;DHT22;42382;53.210;5.772;2023-03-14T08:42:48;6.90;84.20
56478;DHT22;42382;53.210;5.772;2023-03-14T08:45:16;7.00;84.30
56478;DHT22;42382;53.210;5.772;2023-03-14T08:47:43;6.90;84.40
56478;DHT22;42382;53.210;5.772;2023-03-14T08:50:09;6.90;84.50
56478;DHT22;42382;53.210;5.772;2023-03-14T08:52:35;6.90;83.90
56478;DHT22;42382;53.210;5.772;2023-03-14T08:55:03;6.90;83.30
56478;DHT22;42382;53.210;5.772;2023-03-14T08:57:29;6.60;82.70
56478;DHT22;42382;53.210;5.772;2023-03-14T08:59:55;6.60;82.40
56478;DHT22;42382;53.210;5.772;2023-03-14T09:02:21;6.60;81.60
56478;DHT22;42382;53.210;5.772;2023-03-14T09:04:47;6.50;81.10
56478;DHT22;42382;53.210;5.772;2023-03-14T09:07:13;6.50;79.90
56478;DHT22;42382;53.210;5.772;2023-03-14T09:09:38;6.50;79.10
56478;DHT22;42382;53.210;5.772;2023-03-14T09:12:04;6.50;79.20
56478;DHT22;42382;53.210;5.772;2023-03-14T09:14:30;6.60;79.70
56478;DHT22;42382;53.210;5.772;2023-03-14T09:16:57;6.70;79.80
56478;DHT22;42382;53.210;5.772;2023-03-14T09:19:22;6.60;77.60
56478;DHT22;42382;53.210;5.772;2023-03-14T09:21:48;6.60;76.70
56478;DHT22;42382;53.210;5.772;2023-03-14T09:24:15;6.50;75.50
56478;DHT22;42382;53.210;5.772;2023-03-14T09:26:40;6.60;76.00
56478;DHT22;42382;53.210;5.772;2023-03-14T09:29:06;7.10;75.90
56478;DHT22;42382;53.210;5.772;2023-03-14T09:31:32;7.80;74.20
56478;DHT22;42382;53.210;5.772;2023-03-14T09:33:57;8.10;71.20
56478;DHT22;42382;53.210;5.772;2023-03-14T09:36:23;8.10;69.50
56478;DHT22;42382;53.210;5.772;2023-03-14T09:38:48;8.00;68.70
56478;DHT22;42382;53.210;5.772;2023-03-14T09:41:25;7.80;67.90
56478;DHT22;42382;53.210;5.772;2023-03-14T09:44:01;7.90;68.80
56478;DHT22;42382;53.210;5.772;2023-03-14T09:46:29;7.90;68.90
56478;DHT22;42382;53.210;5.772;2023-03-14T09:48:56;7.80;66.90
56478;DHT22;42382;53.210;5.772;2023-03-14T09:51:21;7.90;68.10
56478;DHT22;42382;53.210;5.772;2023-03-14T09:53:49;8.00;67.00
56478;DHT22;42382;53.210;5.772;2023-03-14T09:56:25;8.30;67.10
56478;DHT22;42382;53.210;5.772;2023-03-14T09:59:03;8.60;66.10
56478;DHT22;42382;53.210;5.772;2023-03-14T10:01:31;8.90;62.90
56478;DHT22;42382;53.210;5.772;2023-03-14T10:04:00;9.10;62.60
56478;DHT22;42382;53.210;5.772;2023-03-14T10:06:29;8.80;60.40
56478;DHT22;42382;53.210;5.772;2023-03-14T10:08:56;8.90;63.10
56478;DHT22;42382;53.210;5.772;2023-03-14T10:11:22;9.70;62.60
56478;DHT22;42382;53.210;5.772;2023-03-14T10:13:50;10.30;58.50
56478;DHT22;42382;53.210;5.772;2023-03-14T10:16:16;10.80;57.00
56478;DHT22;42382;53.210;5.772;2023-03-14T10:18:45;11.00;56.30
56478;DHT22;42382;53.210;5.772;2023-03-14T10:21:31;10.80;53.20
56478;DHT22;42382;53.210;5.772;2023-03-14T10:24:18;10.80;53.60
56478;DHT22;42382;53.210;5.772;2023-03-14T10:26:48;11.20;48.80
56478;DHT22;42382;53.210;5.772;2023-03-14T10:29:14;11.40;52.10
56478;DHT22;42382;53.210;5.772;2023-03-14T10:34:21;11.30;47.80
56478;DHT22;42382;53.210;5.772;2023-03-14T10:36:52;10.70;51.00
56478;DHT22;42382;53.210;5.772;2023-03-14T10:39:28;10.50;54.50
56478;DHT22;42382;53.210;5.772;2023-03-14T10:42:03;9.90;52.30
56478;DHT22;42382;53.210;5.772;2023-03-14T10:44:30;9.30;55.10
56478;DHT22;42382;53.210;5.772;2023-03-14T10:46:59;8.90;55.40
56478;DHT22;42382;53.210;5.772;2023-03-14T10:49:36;9.00;56.80
56478;DHT22;42382;53.210;5.772;2023-03-14T10:52:17;9.70;53.50
56478;DHT22;42382;53.210;5.772;2023-03-14T10:54:47;10.40;50.60
56478;DHT22;42382;53.210;5.772;2023-03-14T10:57:12;10.90;48.00
56478;DHT22;42382;53.210;5.772;2023-03-14T10:59:40;11.20;45.60
56478;DHT22;42382;53.210;5.772;2023-03-14T11:05:15;11.70;45.20
56478;DHT22;42382;53.210;5.772;2023-03-14T11:07:44;11.70;42.10
56478;DHT22;42382;53.210;5.772;2023-03-14T11:10:18;11.70;44.50
56478;DHT22;42382;53.210;5.772;2023-03-14T11:21:11;12.40;42.70
56478;DHT22;42382;53.210;5.772;2023-03-14T11:28:57;12.40;45.30
56478;DHT22;42382;53.210;5.772;2023-03-14T11:31:29;12.50;43.90
56478;DHT22;42382;53.210;5.772;2023-03-14T11:34:17;11.60;43.60
56478;DHT22;42382;53.210;5.772;2023-03-14T11:36:56;11.40;47.40
56478;DHT22;42382;53.210;5.772;2023-03-14T11:39:26;11.20;46.40
56478;DHT22;42382;53.210;5.772;2023-03-14T11:41:57;10.60;49.20
56478;DHT22;42382;53.210;5.772;2023-03-14T11:44:29;9.90;50.90
56478;DHT22;42382;53.210;5.772;2023-03-14T11:47:15;9.70;52.90
56478;DHT22;42382;53.210;5.772;2023-03-14T11:49:45;9.60;53.80
56478;DHT22;42382;53.210;5.772;2023-03-14T11:52:33;9.60;52.90
56478;DHT22;42382;53.210;5.772;2023-03-14T11:57:25;9.50;52.50
56478;DHT22;42382;53.210;5.772;2023-03-14T12:02:25;9.10;55.70
56478;DHT22;42382;53.210;5.772;2023-03-14T12:07:29;9.20;53.40
56478;DHT22;42382;53.210;5.772;2023-03-14T12:09:58;9.20;53.20
56478;DHT22;42382;53.210;5.772;2023-03-14T12:12:24;9.20;54.10
56478;DHT22;42382;53.210;5.772;2023-03-14T12:14:58;9.20;53.00
56478;DHT22;42382;53.210;5.772;2023-03-14T12:17:25;9.00;51.80
56478;DHT22;42382;53.210;5.772;2023-03-14T12:20:00;8.90;49.60
56478;DHT22;42382;53.210;5.772;2023-03-14T12:22:27;8.80;51.60
56478;DHT22;42382;53.210;5.772;2023-03-14T12:25:03;8.80;48.60
56478;DHT22;42382;53.210;5.772;2023-03-14T12:27:44;8.60;47.20
56478;DHT22;42382;53.210;5.772;2023-03-14T12:35:36;8.40;51.40
56478;DHT22;42382;53.210;5.772;2023-03-14T12:38:03;8.30;52.20
56478;DHT22;42382;53.210;5.772;2023-03-14T12:40:31;8.30;52.30
56478;DHT22;42382;53.210;5.772;2023-03-14T12:43:00;8.20;53.60
56478;DHT22;42382;53.210;5.772;2023-03-14T12:45:33;8.30;54.90
56478;DHT22;42382;53.210;5.772;2023-03-14T12:50:27;8.30;50.80
56478;DHT22;42382;53.210;5.772;2023-03-14T12:52:58;8.20;51.90
56478;DHT22;42382;53.210;5.772;2023-03-14T12:55:33;8.20;52.70
56478;DHT22;42382;53.210;5.772;2023-03-14T12:58:07;8.30;52.80
56478;DHT22;42382;53.210;5.772;2023-03-14T13:00:40;8.30;52.80
56478;DHT22;42382;53.210;5.772;2023-03-14T13:03:17;8.30;51.00
56478;DHT22;42382;53.210;5.772;2023-03-14T13:05:59;8.30;51.50
56478;DHT22;42382;53.210;5.772;2023-03-14T13:11:21;8.20;51.00
56478;DHT22;42382;53.210;5.772;2023-03-14T13:13:57;8.10;51.30
56478;DHT22;42382;53.210;5.772;2023-03-14T13:16:24;8.00;51.90
56478;DHT22;42382;53.210;5.772;2023-03-14T13:18:50;8.00;51.70
56478;DHT22;42382;53.210;5.772;2023-03-14T13:21:17;8.00;52.60
56478;DHT22;42382;53.210;5.772;2023-03-14T13:26:19;8.10;53.40
56478;DHT22;42382;53.210;5.772;2023-03-14T13:28:45;8.30;54.20
56478;DHT22;42382;53.210;5.772;2023-03-14T13:31:18;8.40;51.90
56478;DHT22;42382;53.210;5.772;2023-03-14T13:33:45;8.50;51.70
56478;DHT22;42382;53.210;5.772;2023-03-14T13:36:10;8.40;50.20
56478;DHT22;42382;53.210;5.772;2023-03-14T13:38:36;8.40;50.20
56478;DHT22;42382;53.210;5.772;2023-03-14T13:41:05;8.30;52.00
56478;DHT22;42382;53.210;5.772;2023-03-14T13:43:36;8.20;51.80
56478;DHT22;42382;53.210;5.772;2023-03-14T13:48:43;8.30;51.40
56478;DHT22;42382;53.210;5.772;2023-03-14T13:51:10;8.30;51.80
56478;DHT22;42382;53.210;5.772;2023-03-14T13:53:47;8.30;51.60
56478;DHT22;42382;53.210;5.772;2023-03-14T13:56:14;8.30;51.40
56478;DHT22;42382;53.210;5.772;2023-03-14T13:58:40;8.30;51.50
56478;DHT22;42382;53.210;5.772;2023-03-14T14:01:10;8.40;50.50
56478;DHT22;42382;53.210;5.772;2023-03-14T14:03:39;8.30;49.90
56478;DHT22;42382;53.210;5.772;2023-03-14T14:06:07;8.10;52.00
56478;DHT22;42382;53.210;5.772;2023-03-14T14:08:34;8.10;51.10
56478;DHT22;42382;53.210;5.772;2023-03-14T14:11:00;8.10;52.40
56478;DHT22;42382;53.210;5.772;2023-03-14T14:13:27;8.10;51.30
56478;DHT22;42382;53.210;5.772;2023-03-14T14:15:55;8.00;52.20
56478;DHT22;42382;53.210;5.772;2023-03-14T14:18:22;8.00;52.70
56478;DHT22;42382;53.210;5.772;2023-03-14T14:20:48;8.00;54.80
56478;DHT22;42382;53.210;5.772;2023-03-14T14:23:19;7.90;53.70
56478;DHT22;42382;53.210;5.772;2023-03-14T14:25:50;7.80;54.30
56478;DHT22;42382;53.210;5.772;2023-03-14T14:28:26;7.60;56.40
56478;DHT22;42382;53.210;5.772;2023-03-14T14:33:38;7.60;55.20
56478;DHT22;42382;53.210;5.772;2023-03-14T14:36:04;7.70;56.20
56478;DHT22;42382;53.210;5.772;2023-03-14T14:38:30;7.70;57.00
56478;DHT22;42382;53.210;5.772;2023-03-14T14:40:59;7.80;57.50
56478;DHT22;42382;53.210;5.772;2023-03-14T14:43:26;7.80;56.40
56478;DHT22;42382;53.210;5.772;2023-03-14T14:45:53;7.90;56.40
56478;DHT22;42382;53.210;5.772;2023-03-14T14:48:20;7.90;55.80
56478;DHT22;42382;53.210;5.772;2023-03-14T14:55:50;7.90;55.00
56478;DHT22;42382;53.210;5.772;2023-03-14T14:58:29;8.10;55.10
56478;DHT22;42382;53.210;5.772;2023-03-14T15:01:15;8.10;54.60
56478;DHT22;42382;53.210;5.772;2023-03-14T15:03:43;8.20;53.70
56478;DHT22;42382;53.210;5.772;2023-03-14T15:06:14;8.20;53.70
56478;DHT22;42382;53.210;5.772;2023-03-14T15:08:43;8.20;52.90
56478;DHT22;42382;53.210;5.772;2023-03-14T15:11:16;8.10;53.40
56478;DHT22;42382;53.210;5.772;2023-03-14T15:13:42;7.90;53.40
56478;DHT22;42382;53.210;5.772;2023-03-14T15:16:10;7.70;54.50
56478;DHT22;42382;53.210;5.772;2023-03-14T15:18:36;7.60;55.90
56478;DHT22;42382;53.210;5.772;2023-03-14T15:21:02;7.40;60.20
56478;DHT22;42382;53.210;5.772;2023-03-14T15:23:28;7.20;63.50
56478;DHT22;42382;53.210;5.772;2023-03-14T15:25:54;7.00;64.90
56478;DHT22;42382;53.210;5.772;2023-03-14T15:28:25;6.90;65.20
56478;DHT22;42382;53.210;5.772;2023-03-14T15:30:52;7.00;65.70
56478;DHT22;42382;53.210;5.772;2023-03-14T15:33:18;7.00;66.10
56478;DHT22;42382;53.210;5.772;2023-03-14T15:35:45;6.90;65.30
56478;DHT22;42382;53.210;5.772;2023-03-14T15:38:14;6.90;65.60
56478;DHT22;42382;53.210;5.772;2023-03-14T15:40:41;6.90;64.50
56478;DHT22;42382;53.210;5.772;2023-03-14T15:43:07;7.00;63.90
56478;DHT22;42382;53.210;5.772;2023-03-14T15:45:33;7.10;62.40
56478;DHT22;42382;53.210;5.772;2023-03-14T15:47:59;7.10;61.70
56478;DHT22;42382;53.210;5.772;2023-03-14T15:50:25;7.30;61.20
56478;DHT22;42382;53.210;5.772;2023-03-14T15:52:51;7.40;56.80
56478;DHT22;42382;53.210;5.772;2023-03-14T15:55:16;7.40;56.00
56478;DHT22;42382;53.210;5.772;2023-03-14T15:57:45;7.40;56.80
56478;DHT22;42382;53.210;5.772;2023-03-14T16:00:13;7.50;55.00
56478;DHT22;42382;53.210;5.772;2023-03-14T16:02:40;7.60;54.50
56478;DHT22;42382;53.210;5.772;2023-03-14T16:05:08;7.70;54.80
56478;DHT22;42382;53.210;5.772;2023-03-14T16:07:34;7.60;55.40
56478;DHT22;42382;53.210;5.772;2023-03-14T16:10:00;7.50;55.10
56478;DHT22;42382;53.210;5.772;2023-03-14T16:12:25;7.50;55.00
56478;DHT22;42382;53.210;5.772;2023-03-14T16:14:51;7.50;56.60
56478;DHT22;42382;53.210;5.772;2023-03-14T16:17:17;7.50;55.10
56478;DHT22;42382;53.210;5.772;2023-03-14T16:19:42;7.30;55.90
56478;DHT22;42382;53.210;5.772;2023-03-14T16:22:08;7.20;57.10
56478;DHT22;42382;53.210;5.772;2023-03-14T16:24:33;7.20;58.00
56478;DHT22;42382;53.210;5.772;2023-03-14T16:26:59;7.30;58.90
56478;DHT22;42382;53.210;5.772;2023-03-14T16:29:25;7.30;59.40
56478;DHT22;42382;53.210;5.772;2023-03-14T16:31:50;7.20;59.50
56478;DHT22;42382;53.210;5.772;2023-03-14T16:34:16;7.00;58.60
56478;DHT22;42382;53.210;5.772;2023-03-14T16:36:41;6.80;56.50
56478;DHT22;42382;53.210;5.772;2023-03-14T16:39:07;6.70;57.40
56478;DHT22;42382;53.210;5.772;2023-03-14T16:41:32;6.60;57.90
56478;DHT22;42382;53.210;5.772;2023-03-14T16:43:59;6.60;58.80
56478;DHT22;42382;53.210;5.772;2023-03-14T16:46:26;6.50;59.80
56478;DHT22;42382;53.210;5.772;2023-03-14T16:48:53;6.50;62.30